createdAt,value
2023-02-03T00:01:14.054Z,97863.28
2023-02-03T00:03:43.333Z,97868.44
2023-02-03T00:06:11.517Z,97863.28
2023-02-03T00:08:39.890Z,97872.00
2023-02-03T00:11:08.214Z,97861.53
2023-02-03T00:13:37.012Z,97847.47
2023-02-03T00:16:06.698Z,97850.25
2023-02-03T00:18:34.727Z,97855.59
2023-02-03T00:21:04.136Z,97847.06
2023-02-03T00:23:32.837Z,97846.13
2023-02-03T00:26:08.330Z,97851.31
2023-02-03T00:28:36.268Z,97841.00
2023-02-03T00:31:04.557Z,97847.88
2023-02-03T00:33:33.760Z,97838.16
2023-02-03T00:36:07.789Z,97844.53
2023-02-03T00:38:37.101Z,97846.97
2023-02-03T00:41:05.265Z,97846.34
2023-02-03T00:43:33.317Z,97855.91
2023-02-03T00:46:03.924Z,97844.53
2023-02-03T00:48:31.787Z,97857.72
2023-02-03T00:50:59.997Z,97859.25
2023-02-03T00:53:29.330Z,97862.00
2023-02-03T00:55:57.240Z,97863.66
2023-02-03T00:58:25.151Z,97858.66
2023-02-03T01:00:53.035Z,97855.91
2023-02-03T01:03:20.934Z,97862.97
2023-02-03T01:05:50.164Z,97866.50
2023-02-03T01:08:18.009Z,97868.31
2023-02-03T01:10:47.269Z,97863.88
2023-02-03T01:13:15.200Z,97863.72
2023-02-03T01:15:47.452Z,97865.47
2023-02-03T01:18:15.343Z,97869.00
2023-02-03T01:20:45.227Z,97857.69
2023-02-03T01:23:13.014Z,97839.41
2023-02-03T01:25:40.929Z,97824.66
2023-02-03T01:28:10.326Z,97822.84
2023-02-03T01:30:38.478Z,97814.16
2023-02-03T01:33:06.624Z,97826.16
2023-02-03T01:35:35.544Z,97833.16
2023-02-03T01:38:04.069Z,97836.63
2023-02-03T01:40:33.213Z,97839.13
2023-02-03T01:43:01.242Z,97810.34
2023-02-03T01:45:30.686Z,97816.53
2023-02-03T01:48:00.846Z,97807.69
2023-02-03T01:50:33.219Z,97828.63
2023-02-03T01:53:05.071Z,97832.94
2023-02-03T01:55:36.900Z,97833.72
2023-02-03T01:58:09.992Z,97828.44
2023-02-03T02:00:39.373Z,97826.53
2023-02-03T02:03:09.293Z,97828.28
2023-02-03T02:05:42.741Z,97830.00
2023-02-03T02:08:14.335Z,97824.88
2023-02-03T02:10:42.308Z,97815.19
2023-02-03T02:13:10.315Z,97800.50
2023-02-03T02:15:54.448Z,97795.16
2023-02-03T02:18:30.795Z,97769.78
2023-02-03T02:21:44.612Z,97745.38
2023-02-03T02:24:42.527Z,97735.88
2023-02-03T02:27:25.478Z,97729.78
2023-02-03T02:30:37.879Z,97743.03
2023-02-03T02:33:18.889Z,97755.13
2023-02-03T02:35:56.455Z,97756.75
2023-02-03T02:38:39.453Z,97756.94
2023-02-03T02:41:14.585Z,97760.44
2023-02-03T02:43:48.403Z,97752.66
2023-02-03T02:46:24.690Z,97748.28
2023-02-03T02:49:00.680Z,97744.84
2023-02-03T02:51:30.918Z,97716.88
2023-02-03T02:54:01.844Z,97718.69
2023-02-03T02:56:33.087Z,97725.56
2023-02-03T02:59:04.464Z,97743.03
2023-02-03T03:01:32.666Z,97742.13
2023-02-03T03:04:06.153Z,97752.53
2023-02-03T03:06:39.569Z,97758.63
2023-02-03T03:09:11.612Z,97744.75
2023-02-03T03:11:44.312Z,97748.28
2023-02-03T03:14:13.964Z,97741.31
2023-02-03T03:16:47.651Z,97740.44
2023-02-03T03:19:22.581Z,97736.09
2023-02-03T03:21:54.769Z,97730.75
2023-02-03T03:24:27.927Z,97732.69
2023-02-03T03:27:03.011Z,97727.34
2023-02-03T03:29:35.806Z,97727.47
2023-02-03T03:32:04.637Z,97720.34
2023-02-03T03:34:34.468Z,97728.22
2023-02-03T03:37:08.071Z,97736.97
2023-02-03T03:39:43.893Z,97745.72
2023-02-03T03:42:19.956Z,97757.03
2023-02-03T03:44:53.954Z,97763.19
2023-02-03T03:47:36.586Z,97757.03
2023-02-03T03:50:10.507Z,97763.88
2023-02-03T03:52:39.628Z,97769.25
2023-02-03T03:55:11.085Z,97787.59
2023-02-03T03:57:43.184Z,97791.94
2023-02-03T04:00:16.132Z,97797.09
2023-02-03T04:02:50.665Z,97799.66
2023-02-03T04:05:21.051Z,97805.88
2023-02-03T04:07:49.236Z,97827.66
2023-02-03T04:10:27.027Z,97826.81
2023-02-03T04:12:55.127Z,97815.31
2023-02-03T04:15:23.068Z,97811.09
2023-02-03T04:17:51.025Z,97808.34
2023-02-03T04:20:20.426Z,97795.41
2023-02-03T04:22:48.313Z,97804.09
2023-02-03T04:25:16.210Z,97804.13
2023-02-03T04:27:44.159Z,97812.06
2023-02-03T04:30:13.560Z,97812.00
2023-02-03T04:32:41.615Z,97812.78
2023-02-03T04:35:09.885Z,97806.72
2023-02-03T04:37:39.242Z,97801.59
2023-02-03T04:40:08.499Z,97793.78
2023-02-03T04:42:38.851Z,97791.28
2023-02-03T04:45:08.684Z,97790.44
2023-02-03T04:47:36.651Z,97785.94
2023-02-03T04:50:05.079Z,97790.38
2023-02-03T04:52:33.020Z,97783.44
2023-02-03T04:55:03.936Z,97782.59
2023-02-03T04:57:32.441Z,97789.47
2023-02-03T05:00:00.288Z,97780.75
2023-02-03T05:02:28.169Z,97775.47
2023-02-03T05:04:56.096Z,97765.84
2023-02-03T05:07:24.029Z,97768.53
2023-02-03T05:09:52.442Z,97765.22
2023-02-03T05:12:21.785Z,97781.63
2023-02-03T05:14:49.737Z,97767.72
2023-02-03T05:17:17.560Z,97762.38
2023-02-03T05:19:45.409Z,97775.34
2023-02-03T05:22:13.542Z,97791.97
2023-02-03T05:24:41.419Z,97791.97
2023-02-03T05:27:09.424Z,97788.44
2023-02-03T05:29:38.643Z,97795.41
2023-02-03T05:32:07.009Z,97798.84
2023-02-03T05:34:35.104Z,97810.13
2023-02-03T05:37:03.895Z,97795.41
2023-02-03T05:39:31.743Z,97790.97
2023-02-03T05:41:59.255Z,97802.28
2023-02-03T05:44:29.143Z,97811.78
2023-02-03T05:46:59.918Z,97804.72
2023-02-03T05:49:27.844Z,97808.31
2023-02-03T05:51:56.896Z,97793.47
2023-02-03T05:54:24.800Z,97786.53
2023-02-03T05:56:52.975Z,97783.84
2023-02-03T05:59:20.871Z,97783.09
2023-02-03T06:01:48.759Z,97779.53
2023-02-03T06:04:18.255Z,97776.91
2023-02-03T06:06:47.756Z,97779.44
2023-02-03T06:09:15.693Z,97777.59
2023-02-03T06:11:43.687Z,97773.31
2023-02-03T06:14:11.525Z,97775.94
2023-02-03T06:16:39.510Z,97786.44
2023-02-03T06:19:07.498Z,97772.41
2023-02-03T06:21:36.697Z,97773.38
2023-02-03T06:24:05.176Z,97756.81
2023-02-03T06:26:33.083Z,97757.78
2023-02-03T06:29:01.003Z,97758.59
2023-02-03T06:31:29.100Z,97766.44
2023-02-03T06:33:57.488Z,97764.66
2023-02-03T06:36:25.380Z,97765.59
2023-02-03T06:38:55.545Z,97774.22
2023-02-03T06:41:27.523Z,97771.72
2023-02-03T06:43:55.429Z,97780.25
2023-02-03T06:46:23.484Z,97784.81
2023-02-03T06:48:51.369Z,97777.88
2023-02-03T06:51:19.276Z,97770.91
2023-02-03T06:53:47.512Z,97763.22
2023-02-03T06:56:17.177Z,97758.78
2023-02-03T06:58:45.550Z,97756.31
2023-02-03T07:01:15.651Z,97752.84
2023-02-03T07:03:43.599Z,97755.63
2023-02-03T07:06:11.583Z,97753.88
2023-02-03T07:08:39.477Z,97744.38
2023-02-03T07:11:07.322Z,97754.06
2023-02-03T07:13:36.740Z,97748.81
2023-02-03T07:16:04.950Z,97744.72
2023-02-03T07:18:48.411Z,97750.63
2023-02-03T07:21:17.564Z,97754.13
2023-02-03T07:23:48.444Z,97763.78
2023-02-03T07:26:16.973Z,97756.19
2023-02-03T07:28:46.535Z,97751.78
2023-02-03T07:31:14.479Z,97740.41
2023-02-03T07:33:42.405Z,97746.44
2023-02-03T07:36:11.938Z,97745.53
2023-02-03T07:38:39.959Z,97736.03
2023-02-03T07:41:08.191Z,97741.94
2023-02-03T07:43:36.067Z,97736.78
2023-02-03T07:46:05.779Z,97744.63
2023-02-03T07:48:33.705Z,97759.53
2023-02-03T07:51:01.672Z,97771.56
2023-02-03T07:53:29.721Z,97774.25
2023-02-03T07:56:01.090Z,97787.28
2023-02-03T07:58:29.086Z,97793.44
2023-02-03T08:00:58.038Z,97798.53
2023-02-03T08:03:27.427Z,97802.13
2023-02-03T08:05:55.577Z,97807.34
2023-02-03T08:08:23.444Z,97824.78
2023-02-03T08:10:51.275Z,97825.78
2023-02-03T08:13:19.089Z,97830.22
2023-02-03T08:15:46.948Z,97821.38
2023-02-03T08:18:15.059Z,97817.81
2023-02-03T08:20:44.303Z,97823.00
2023-02-03T08:23:12.544Z,97814.19
2023-02-03T08:25:40.575Z,97814.09
2023-02-03T08:28:08.561Z,97816.63
2023-02-03T08:30:36.538Z,97822.63
2023-02-03T08:33:05.082Z,97844.44
2023-02-03T08:35:33.633Z,97842.66
2023-02-03T08:38:02.879Z,97847.09
2023-02-03T08:40:31.121Z,97847.06
2023-02-03T08:42:59.302Z,97841.88
2023-02-03T08:45:27.219Z,97832.16
2023-02-03T08:47:55.140Z,97846.00
2023-02-03T08:50:22.994Z,97854.59
2023-02-03T08:52:50.817Z,97839.63
2023-02-03T08:55:20.166Z,97840.38
2023-02-03T08:57:50.149Z,97832.34
2023-02-03T09:00:18.879Z,97828.06
2023-02-03T09:02:46.719Z,97830.59
2023-02-03T09:05:15.923Z,97834.06
2023-02-03T09:07:43.892Z,97833.13
2023-02-03T09:10:12.050Z,97841.53
2023-02-03T09:12:41.284Z,97831.06
2023-02-03T09:15:10.044Z,97817.78
2023-02-03T09:17:37.856Z,97811.47
2023-02-03T09:20:06.635Z,97813.06
2023-02-03T09:22:34.585Z,97803.25
2023-02-03T09:25:02.696Z,97808.41
2023-02-03T09:27:30.549Z,97804.84
2023-02-03T09:29:59.950Z,97795.09
2023-02-03T09:32:27.831Z,97807.00
2023-02-03T09:34:55.715Z,97812.25
2023-02-03T09:37:23.621Z,97815.59
2023-02-03T09:39:51.423Z,97807.69
2023-02-03T09:42:51.144Z,97810.91
2023-02-03T09:45:26.626Z,97814.34
2023-02-03T09:47:58.185Z,97821.09
2023-02-03T09:50:29.337Z,97827.94
2023-02-03T09:52:59.853Z,97819.16
2023-02-03T09:55:36.609Z,97816.53
2023-02-03T09:58:09.810Z,97819.94
2023-02-03T10:00:44.593Z,97819.59
2023-02-03T10:03:22.825Z,97824.59
2023-02-03T10:06:04.859Z,97813.94
2023-02-03T10:08:47.982Z,97809.47
2023-02-03T10:11:24.135Z,97806.59
2023-02-03T10:14:05.071Z,97797.56
2023-02-03T10:16:54.946Z,97791.50
2023-02-03T10:19:28.103Z,97786.22
2023-02-03T10:21:59.221Z,97793.25
2023-02-03T10:24:38.740Z,97804.56
2023-02-03T10:27:07.403Z,97812.31
2023-02-03T10:29:40.654Z,97824.53
2023-02-03T10:32:11.760Z,97835.13
2023-02-03T10:34:40.918Z,97825.44
2023-02-03T10:37:19.912Z,97818.34
2023-02-03T10:39:50.323Z,97820.97
2023-02-03T10:42:19.383Z,97831.47
2023-02-03T10:44:50.529Z,97820.06
2023-02-03T10:47:26.863Z,97815.41
2023-02-03T10:49:58.159Z,97807.44
2023-02-03T10:52:29.216Z,97800.34
2023-02-03T10:54:59.331Z,97779.94
2023-02-03T10:57:30.557Z,97775.47
2023-02-03T11:00:08.986Z,97756.22
2023-02-03T11:02:38.609Z,97755.28
2023-02-03T11:05:11.901Z,97739.38
2023-02-03T11:07:39.770Z,97735.06
2023-02-03T11:10:29.899Z,97751.75
2023-02-03T11:13:13.419Z,97764.78
2023-02-03T11:15:58.604Z,97759.47
2023-02-03T11:18:55.127Z,97754.22
2023-02-03T11:21:26.451Z,97756.72
2023-02-03T11:24:02.731Z,97744.44
2023-02-03T11:26:34.305Z,97744.53
2023-02-03T11:29:04.644Z,97753.25
2023-02-03T11:31:35.325Z,97757.56
2023-02-03T11:34:07.295Z,97746.31
2023-02-03T11:36:36.683Z,97742.69
2023-02-03T11:39:22.467Z,97736.66
2023-02-03T11:41:50.751Z,97738.34
2023-02-03T11:44:22.286Z,97745.31
2023-02-03T11:46:54.221Z,97752.25
2023-02-03T11:49:42.656Z,97741.75
2023-02-03T11:52:29.404Z,97739.19
2023-02-03T11:55:08.814Z,97733.88
2023-02-03T11:57:45.659Z,97705.75
2023-02-03T12:00:29.277Z,97708.50
2023-02-03T12:03:31.978Z,97705.03
2023-02-03T12:06:29.965Z,97715.25
2023-02-03T12:09:20.716Z,97702.97
2023-02-03T12:12:18.811Z,97702.00
2023-02-03T12:15:00.483Z,97703.63
2023-02-03T12:17:41.609Z,97711.44
2023-02-03T12:20:41.092Z,97715.69
2023-02-03T12:23:23.438Z,97708.56
2023-02-03T12:26:05.876Z,97712.97
2023-02-03T12:28:47.090Z,97700.69
2023-02-03T12:31:19.662Z,97706.84
2023-02-03T12:33:53.524Z,97699.78
2023-02-03T12:36:26.645Z,97693.72
2023-02-03T12:39:01.620Z,97694.59
2023-02-03T12:41:33.183Z,97695.44
2023-02-03T12:44:05.810Z,97692.88
2023-02-03T12:46:41.745Z,97698.06
2023-02-03T12:49:17.492Z,97703.25
2023-02-03T12:51:50.868Z,97691.16
2023-02-03T12:54:34.156Z,97694.69
2023-02-03T12:57:15.498Z,97694.59
2023-02-03T12:59:45.177Z,97690.19
2023-02-03T13:02:19.787Z,97665.72
2023-02-03T13:04:55.989Z,97657.88
2023-02-03T13:07:29.010Z,97662.34
2023-02-03T13:10:05.143Z,97643.97
2023-02-03T13:12:37.147Z,97663.09
2023-02-03T13:15:20.079Z,97656.13
2023-02-03T13:17:54.269Z,97647.28
2023-02-03T13:20:24.619Z,97643.72
2023-02-03T13:22:53.294Z,97625.34
2023-02-03T13:25:27.908Z,97614.72
2023-02-03T13:28:08.874Z,97629.53
2023-02-03T13:31:06.502Z,97636.56
2023-02-03T13:33:52.142Z,97632.22
2023-02-03T13:36:42.684Z,97642.50
2023-02-03T13:39:30.203Z,97640.03
2023-02-03T13:42:15.093Z,97645.28
2023-02-03T13:44:45.607Z,97646.06
2023-02-03T13:47:17.671Z,97646.06
2023-02-03T13:49:50.335Z,97639.25
2023-02-03T13:52:32.079Z,97641.88
2023-02-03T13:55:01.129Z,97634.00
2023-02-03T13:57:35.553Z,97637.63
2023-02-03T14:00:05.843Z,97633.31
2023-02-03T14:02:46.437Z,97634.16
2023-02-03T14:05:43.310Z,97650.00
2023-02-03T14:08:53.989Z,97652.59
2023-02-03T14:11:46.840Z,97649.16
2023-02-03T14:14:57.141Z,97644.03
2023-02-03T14:17:55.622Z,97651.06
2023-02-03T14:20:59.073Z,97656.31
2023-02-03T14:23:35.527Z,97659.06
2023-02-03T14:26:04.316Z,97660.94
2023-02-03T14:28:40.121Z,97663.66
2023-02-03T14:31:16.506Z,97659.28
2023-02-03T14:34:09.427Z,97659.28
2023-02-03T14:36:44.601Z,97656.66
2023-02-03T14:40:01.449Z,97656.78
2023-02-03T14:42:44.275Z,97664.72
2023-02-03T14:45:30.665Z,97656.84
2023-02-03T14:48:15.263Z,97645.50
2023-02-03T14:50:59.422Z,97659.63
2023-02-03T14:54:12.003Z,97664.09
2023-02-03T14:57:05.674Z,97667.78
2023-02-03T14:59:40.735Z,97667.78
2023-02-03T15:02:14.959Z,97681.94
2023-02-03T15:04:45.774Z,97684.56
2023-02-03T15:07:37.295Z,97682.78
2023-02-03T15:10:13.077Z,97673.34
2023-02-03T15:12:46.439Z,97676.13
2023-02-03T15:15:15.848Z,97676.16
2023-02-03T15:17:43.738Z,97686.00
2023-02-03T15:20:33.652Z,97680.56
2023-02-03T15:23:02.522Z,97672.06
2023-02-03T15:25:32.998Z,97671.31
2023-02-03T15:28:17.069Z,97660.84
2023-02-03T15:30:45.606Z,97656.47
2023-02-03T15:33:18.118Z,97656.56
2023-02-03T15:35:50.634Z,97659.28
2023-02-03T15:38:26.507Z,97672.41
2023-02-03T15:40:58.066Z,97676.84
2023-02-03T15:43:32.433Z,97683.88
2023-02-03T15:46:08.735Z,97677.00
2023-02-03T15:48:43.400Z,97682.94
2023-02-03T15:51:17.481Z,97682.25
2023-02-03T15:53:53.146Z,97688.25
2023-02-03T15:56:26.625Z,97691.78
2023-02-03T15:58:55.193Z,97697.19
2023-02-03T16:01:26.648Z,97703.31
2023-02-03T16:03:56.950Z,97707.78
2023-02-03T16:06:35.789Z,97710.28
2023-02-03T16:09:05.091Z,97705.06
2023-02-03T16:11:35.158Z,97707.88
2023-02-03T16:14:04.925Z,97711.19
2023-02-03T16:16:38.027Z,97719.16
2023-02-03T16:19:07.619Z,97706.03
2023-02-03T16:21:38.722Z,97715.53
2023-02-03T16:24:07.570Z,97715.72
2023-02-03T16:26:38.553Z,97700.84
2023-02-03T16:29:31.581Z,97699.72
2023-02-03T16:32:18.016Z,97706.75
2023-02-03T16:35:03.741Z,97696.38
2023-02-03T16:37:53.199Z,97698.09
2023-02-03T16:40:40.536Z,97689.31
2023-02-03T16:43:30.828Z,97697.97
2023-02-03T16:46:21.167Z,97680.50
2023-02-03T16:49:37.775Z,97678.03
2023-02-03T16:52:30.109Z,97678.03
2023-02-03T16:55:12.988Z,97687.59
2023-02-03T16:57:50.830Z,97689.22
2023-02-03T17:00:46.901Z,97692.84
2023-02-03T17:03:45.031Z,97702.34
2023-02-03T17:06:36.105Z,97706.69
2023-02-03T17:09:13.434Z,97710.00
2023-02-03T17:12:17.921Z,97701.34
2023-02-03T17:14:55.909Z,97693.50
2023-02-03T17:17:32.409Z,97702.22
2023-02-03T17:20:22.303Z,97715.41
2023-02-03T17:23:05.122Z,97726.59
2023-02-03T17:25:45.917Z,97725.75
2023-02-03T17:28:29.506Z,97723.06
2023-02-03T17:31:17.890Z,97721.34
2023-02-03T17:33:58.204Z,97721.31
2023-02-03T17:37:01.215Z,97729.16
2023-02-03T17:53:53.677Z,97718.88
2023-02-03T17:56:23.558Z,97714.47
2023-02-03T17:58:56.510Z,97715.34
2023-02-03T18:01:27.065Z,97724.97
2023-02-03T18:03:58.130Z,97724.06
2023-02-03T18:06:28.024Z,97740.66
2023-02-03T18:09:01.116Z,97731.00
2023-02-03T18:11:30.417Z,97730.88
2023-02-03T18:13:58.445Z,97743.06
2023-02-03T18:16:32.481Z,97747.47
2023-02-03T18:19:02.793Z,97744.78
2023-02-03T18:21:32.396Z,97750.91
2023-02-03T18:24:01.826Z,97751.69
2023-02-03T18:26:32.662Z,97753.50
2023-02-03T18:29:00.619Z,97747.34
2023-02-03T18:31:30.199Z,97749.78
2023-02-03T18:34:02.427Z,97757.63
2023-02-03T18:36:30.530Z,97760.25
2023-02-03T18:38:58.489Z,97762.84
2023-02-03T18:41:27.185Z,97771.50
2023-02-03T18:43:55.439Z,97772.34
2023-02-03T18:46:24.829Z,97753.97
2023-02-03T18:48:56.123Z,97755.75
2023-02-03T18:51:25.620Z,97748.66
2023-02-03T18:53:58.453Z,97746.03
2023-02-03T18:56:34.852Z,97745.13
2023-02-03T18:59:05.751Z,97749.53
2023-02-03T19:01:34.197Z,97749.38
2023-02-03T19:04:04.799Z,97750.31
2023-02-03T19:06:34.620Z,97738.03
2023-02-03T19:09:03.265Z,97740.66
2023-02-03T19:11:31.221Z,97738.88
2023-02-03T19:13:59.096Z,97736.25
2023-02-03T19:16:27.272Z,97733.63
2023-02-03T19:18:55.188Z,97730.22
2023-02-03T19:21:24.424Z,97724.06
2023-02-03T19:23:52.311Z,97738.88
2023-02-03T19:26:20.149Z,97737.94
2023-02-03T19:28:48.012Z,97748.44
2023-02-03T19:31:16.412Z,97735.28
2023-02-03T19:33:44.705Z,97725.72
2023-02-03T19:36:12.903Z,97733.50
2023-02-03T19:38:42.173Z,97737.91
2023-02-03T19:41:11.752Z,97742.22
2023-02-03T19:43:40.011Z,97744.78
2023-02-03T19:46:08.191Z,97744.84
2023-02-03T19:48:36.718Z,97745.72
2023-02-03T19:51:04.787Z,97757.91
2023-02-03T19:53:33.014Z,97760.66
2023-02-03T19:56:02.307Z,97751.06
2023-02-03T19:58:30.708Z,97766.81
2023-02-03T20:00:58.667Z,97771.22
2023-02-03T20:03:26.719Z,97768.59
2023-02-03T20:05:54.651Z,97769.44
2023-02-03T20:08:22.542Z,97769.38
2023-02-03T20:10:51.426Z,97776.41
2023-02-03T20:13:20.772Z,97786.97
2023-02-03T20:15:48.760Z,97784.28
2023-02-03T20:18:16.730Z,97773.84
2023-02-03T20:20:44.649Z,97783.53
2023-02-03T20:23:12.577Z,97791.41
2023-02-03T20:25:40.428Z,97792.19
2023-02-03T20:28:08.615Z,97793.06
2023-02-03T20:30:38.697Z,97788.75
2023-02-03T20:33:07.042Z,97786.13
2023-02-03T20:35:35.113Z,97784.34
2023-02-03T20:38:03.050Z,97791.31
2023-02-03T20:40:31.244Z,97770.38
2023-02-03T20:43:03.137Z,97766.06
2023-02-03T20:45:31.433Z,97767.75
2023-02-03T20:48:01.136Z,97766.94
2023-02-03T20:50:37.474Z,97782.56
2023-02-03T20:53:14.106Z,97776.56
2023-02-03T20:55:42.087Z,97773.78
2023-02-03T20:58:19.150Z,97781.66
2023-02-03T21:00:47.814Z,97785.13
2023-02-03T21:03:36.913Z,97775.63
2023-02-03T21:06:13.055Z,97772.94
2023-02-03T21:08:40.935Z,97786.13
2023-02-03T21:11:12.540Z,97787.88
2023-02-03T21:13:41.474Z,97785.13
2023-02-03T21:16:17.376Z,97780.72
2023-02-03T21:18:50.344Z,97785.88
2023-02-03T21:21:24.761Z,97790.31
2023-02-03T21:23:53.913Z,97795.38
2023-02-03T21:26:23.956Z,97792.75
2023-02-03T21:28:53.368Z,97787.50
2023-02-03T21:31:27.930Z,97775.38
2023-02-03T21:33:59.936Z,97769.97
2023-02-03T21:36:31.297Z,97767.31
2023-02-03T21:39:00.600Z,97775.09
2023-02-03T21:41:33.861Z,97775.88
2023-02-03T21:44:02.673Z,97774.00
2023-02-03T21:46:33.834Z,97781.78
2023-02-03T21:49:04.870Z,97786.13
2023-02-03T21:51:36.319Z,97788.63
2023-02-03T21:54:23.626Z,97793.00
2023-02-03T21:56:51.974Z,97781.53
2023-02-03T21:59:22.052Z,97781.53
2023-02-03T22:01:53.008Z,97782.31
2023-02-03T22:04:22.659Z,97785.78
2023-02-03T22:06:53.907Z,97789.22
2023-02-03T22:09:23.741Z,97788.34
2023-02-03T22:11:52.284Z,97783.09
2023-02-03T22:14:21.779Z,97787.47
2023-02-03T22:16:51.172Z,97785.66
2023-02-03T22:19:19.403Z,97786.59
2023-02-03T22:21:50.925Z,97790.06
2023-02-03T22:24:19.150Z,97790.91
2023-02-03T22:26:47.384Z,97788.41
2023-02-03T22:29:15.363Z,97795.31
2023-02-03T22:31:43.496Z,97797.00
2023-02-03T22:34:11.430Z,97801.47
2023-02-03T22:36:39.333Z,97807.63
2023-02-03T22:39:08.603Z,97796.25
2023-02-03T22:41:36.877Z,97797.94
2023-02-03T22:44:04.801Z,97802.25
2023-02-03T22:46:32.761Z,97812.75
2023-02-03T22:49:00.785Z,97814.47
2023-02-03T22:51:28.694Z,97817.06
2023-02-03T22:53:56.627Z,97825.84
2023-02-03T22:56:25.930Z,97826.69
2023-02-03T22:58:53.758Z,97841.53
2023-02-03T23:01:21.711Z,97831.03
2023-02-03T23:03:49.577Z,97837.19
2023-02-03T23:06:17.501Z,97835.53
2023-02-03T23:08:45.386Z,97832.91
2023-02-03T23:11:13.230Z,97837.31
2023-02-03T23:13:42.442Z,97845.19
2023-02-03T23:16:10.415Z,97846.13
2023-02-03T23:18:38.301Z,97845.19
2023-02-03T23:21:06.564Z,97845.13
2023-02-03T23:23:34.571Z,97839.00
2023-02-03T23:26:02.429Z,97845.97
2023-02-03T23:28:30.313Z,97832.06
2023-02-03T23:30:59.749Z,97839.94
2023-02-03T23:33:27.840Z,97839.13
2023-02-03T23:35:55.567Z,97846.84
2023-02-03T23:38:23.436Z,97845.97
2023-02-03T23:40:51.638Z,97834.56
2023-02-03T23:43:19.586Z,97840.06
2023-02-03T23:45:47.543Z,97844.34
2023-02-03T23:48:17.706Z,97845.19
2023-02-03T23:50:45.620Z,97852.13
2023-02-03T23:53:13.555Z,97844.38
2023-02-03T23:55:41.420Z,97852.22
2023-02-03T23:58:09.304Z,97847.81
